Time;durP1;ratioP1;P1;durP2;ratioP2;P2;SDS_P1;SDS_P2;PMS_P1;PMS_P2;Temp;Humidity;BMP_temperature;BMP_pressure;BME280_temperature;BME280_humidity;BME280_pressure;Samples;Min_cycle;Max_cycle;Signal;HPM_P1;HPM_P2
2022/09/19 00:07:31;;;;;;;3.10;0.70;;;10.50;97.00;;;;;;20927948;28;20201;-72
2022/09/19 00:17:32;;;;;;;0.73;0.70;;;10.50;97.20;;;;;;20920114;28;20288;-73
2022/09/19 00:27:34;;;;;;;3.07;1.30;;;10.60;97.10;;;;;;20841528;28;20257;-73
2022/09/19 00:37:36;;;;;;;1.53;0.90;;;10.60;96.90;;;;;;20842358;28;20236;-71
2022/09/19 00:47:41;;;;;;;5.90;1.07;;;10.70;96.90;;;;;;20842733;28;20211;-72
2022/09/19 00:58:01;;;;;;;1.97;1.10;;;10.70;96.70;;;;;;20841498;28;20236;-72
2022/09/19 01:08:22;;;;;;;2.43;1.00;;;10.60;96.60;;;;;;20840324;28;20212;-72
2022/09/19 01:18:52;;;;;;;1.50;1.10;;;10.60;96.80;;;;;;20840241;28;20235;-72
2022/09/19 01:29:07;;;;;;;1.50;1.20;;;10.70;96.90;;;;;;20839272;28;20220;-72
2022/09/19 01:39:11;;;;;;;2.23;1.30;;;10.60;96.80;;;;;;20896281;28;20242;-72
2022/09/19 01:49:40;;;;;;;5.03;1.47;;;10.60;96.90;;;;;;20918247;28;20214;-72
2022/09/19 01:59:48;;;;;;;6.27;1.63;;;10.60;97.20;;;;;;20919572;28;20228;-71
2022/09/19 02:09:55;;;;;;;4.63;1.50;;;10.70;97.20;;;;;;20918441;28;20213;-72
2022/09/19 02:19:59;;;;;;;5.93;1.50;;;10.80;97.30;;;;;;20895970;28;20298;-74
2022/09/19 02:30:08;;;;;;;3.07;1.60;;;10.80;97.50;;;;;;20832196;28;20208;-72
2022/09/19 02:40:22;;;;;;;4.17;1.83;;;10.80;97.90;;;;;;20833414;28;20248;-72
2022/09/19 02:50:39;;;;;;;2.27;1.57;;;10.80;97.80;;;;;;20832859;28;20212;-72
2022/09/19 03:00:41;;;;;;;7.27;2.10;;;10.80;98.10;;;;;;20832705;28;20236;-72
2022/09/19 03:10:48;;;;;;;4.97;1.67;;;10.90;98.20;;;;;;20831828;28;20271;-73
2022/09/19 03:21:01;;;;;;;6.10;2.33;;;11.00;98.20;;;;;;20831041;28;20592;-73
2022/09/19 03:31:03;;;;;;;7.83;2.00;;;11.00;98.10;;;;;;20830379;28;20258;-72
2022/09/19 03:41:05;;;;;;;6.83;2.40;;;11.00;98.10;;;;;;20829844;28;20270;-72
2022/09/19 03:51:07;;;;;;;6.90;2.40;;;11.00;98.30;;;;;;20829456;28;20212;-73
2022/09/19 04:01:11;;;;;;;4.63;2.60;;;11.00;98.20;;;;;;20829360;28;20238;-72
2022/09/19 04:11:13;;;;;;;4.30;2.53;;;11.10;98.40;;;;;;20828283;28;20233;-72
2022/09/19 04:21:16;;;;;;;8.37;2.43;;;11.10;98.40;;;;;;20826146;28;20699;-73
2022/09/19 04:31:18;;;;;;;4.57;2.50;;;11.20;98.50;;;;;;20825127;28;20205;-73
2022/09/19 04:41:20;;;;;;;9.90;3.03;;;11.30;98.40;;;;;;20827250;28;20240;-73
2022/09/19 04:51:23;;;;;;;7.70;2.90;;;11.30;98.50;;;;;;20839636;28;20217;-73
2022/09/19 05:01:26;;;;;;;6.33;2.80;;;11.40;98.40;;;;;;20841166;28;20236;-73
2022/09/19 05:11:28;;;;;;;9.67;2.83;;;11.30;98.00;;;;;;20839363;28;20228;-73
2022/09/19 05:21:30;;;;;;;10.50;3.20;;;11.40;98.00;;;;;;20839007;28;20292;-72
2022/09/19 05:31:31;;;;;;;11.27;3.20;;;11.40;98.40;;;;;;20838450;28;20209;-73
2022/09/19 05:41:35;;;;;;;8.33;3.37;;;11.50;98.30;;;;;;20837185;28;20262;-73
2022/09/19 05:51:37;;;;;;;10.07;4.20;;;11.60;98.30;;;;;;20836456;28;20259;-73
2022/09/19 06:01:38;;;;;;;13.37;3.60;;;11.60;98.20;;;;;;20836156;28;20293;-74
2022/09/19 06:11:40;;;;;;;8.97;3.30;;;11.60;98.30;;;;;;20835259;28;20215;-73
2022/09/19 06:21:42;;;;;;;9.40;3.23;;;11.80;97.80;;;;;;20833371;28;20344;-74
2022/09/19 06:31:44;;;;;;;7.77;3.30;;;11.80;98.10;;;;;;20831057;28;20263;-74
2022/09/19 06:41:47;;;;;;;13.97;3.50;;;11.80;97.70;;;;;;20831599;28;20256;-73
2022/09/19 06:51:49;;;;;;;9.60;3.47;;;11.90;97.80;;;;;;20830789;28;20562;-73
2022/09/19 07:01:51;;;;;;;12.63;3.00;;;11.90;98.00;;;;;;20830878;28;20696;-73
2022/09/19 07:11:54;;;;;;;6.47;2.60;;;12.00;97.90;;;;;;20829496;28;20623;-73
2022/09/19 07:21:57;;;;;;;9.10;2.90;;;12.20;97.90;;;;;;20829530;28;20579;-73
2022/09/19 07:31:59;;;;;;;7.70;2.80;;;12.30;97.60;;;;;;20829624;28;20297;-73
2022/09/19 07:42:01;;;;;;;8.27;2.80;;;12.50;97.70;;;;;;20828549;28;20250;-73
2022/09/19 07:52:03;;;;;;;7.73;3.20;;;12.60;97.40;;;;;;20828303;28;20239;-73
2022/09/19 08:02:07;;;;;;;8.17;3.23;;;12.60;97.40;;;;;;20828209;28;20244;-72
2022/09/19 08:12:11;;;;;;;5.90;3.23;;;12.80;97.20;;;;;;20827195;28;20213;-74
2022/09/19 08:22:13;;;;;;;8.40;3.13;;;12.80;96.70;;;;;;20833470;28;20309;-73
2022/09/19 08:32:15;;;;;;;10.90;3.17;;;13.00;96.70;;;;;;20838116;28;20215;-74
2022/09/19 08:42:28;;;;;;;8.17;3.20;;;13.10;96.90;;;;;;20840253;28;20240;-74
2022/09/19 08:52:34;;;;;;;5.43;2.30;;;13.50;96.60;;;;;;20839572;28;20727;-74
2022/09/19 09:02:50;;;;;;;8.70;2.70;;;13.80;95.70;;;;;;20839826;28;20312;-74
2022/09/19 09:13:16;;;;;;;6.90;2.83;;;14.10;95.20;;;;;;20838989;28;20220;-74
2022/09/19 09:23:32;;;;;;;7.77;2.60;;;14.40;94.60;;;;;;20837472;28;20240;-73
2022/09/19 09:33:40;;;;;;;5.70;2.43;;;14.40;93.10;;;;;;20836281;28;20270;-73
2022/09/19 09:44:01;;;;;;;5.43;2.73;;;14.50;93.50;;;;;;20836490;28;20248;-73
2022/09/19 10:04:50;;;;;;;4.83;2.20;;;14.70;92.10;;;;;;20835245;28;20235;-73
2022/09/19 10:14:58;;;;;;;4.63;2.10;;;14.90;92.00;;;;;;20834811;28;20205;-73
2022/09/19 10:25:09;;;;;;;5.27;2.43;;;15.00;91.40;;;;;;20833335;28;20602;-73
2022/09/19 10:35:28;;;;;;;12.77;2.93;;;15.10;91.00;;;;;;20831108;28;20294;-72
2022/09/19 10:45:35;;;;;;;6.83;2.30;;;15.10;90.90;;;;;;20831055;28;20232;-74
2022/09/19 10:55:43;;;;;;;8.73;2.23;;;15.10;90.70;;;;;;20831019;28;20210;-74
2022/09/19 11:06:05;;;;;;;4.77;2.23;;;15.10;90.50;;;;;;20830817;28;20698;-74
2022/09/19 11:16:23;;;;;;;5.47;2.20;;;15.30;90.40;;;;;;20830093;28;20608;-73
2022/09/19 11:26:47;;;;;;;5.07;2.50;;;15.00;90.90;;;;;;20828512;28;20262;-74
2022/09/19 11:37:41;;;;;;;5.97;2.70;;;15.00;91.40;;;;;;20828292;28;20232;-73
2022/09/19 11:48:17;;;;;;;2.60;1.83;;;15.00;91.80;;;;;;20805616;28;20295;-75
2022/09/19 11:58:50;;;;;;;6.27;2.37;;;15.20;92.20;;;;;;20840859;28;20331;-74
2022/09/19 12:09:08;;;;;;;3.97;2.30;;;15.20;92.30;;;;;;20853817;28;20208;-72
2022/09/19 12:19:16;;;;;;;7.43;2.43;;;15.30;92.30;;;;;;20908191;28;20224;-74
2022/09/19 12:29:38;;;;;;;5.40;2.77;;;15.50;92.40;;;;;;20876849;28;20258;-74
2022/09/19 12:40:11;;;;;;;4.17;2.53;;;15.50;92.10;;;;;;20841288;28;20268;-74
2022/09/19 12:50:20;;;;;;;6.70;2.77;;;15.20;93.20;;;;;;20844237;28;20221;-74
2022/09/19 13:00:22;;;;;;;4.17;2.70;;;15.10;94.20;;;;;;20850694;28;20231;-76
2022/09/19 13:10:44;;;;;;;3.57;2.87;;;14.90;95.00;;;;;;20922942;28;20213;-77
2022/09/19 13:31:12;;;;;;;9.93;3.80;;;14.50;96.00;;;;;;20917617;28;20664;-74
2022/09/19 13:41:33;;;;;;;6.97;3.10;;;14.80;97.50;;;;;;20918982;28;20331;-76
2022/09/19 13:51:44;;;;;;;8.20;3.40;;;14.80;97.50;;;;;;20952310;28;20281;-76
2022/09/19 14:01:54;;;;;;;8.80;3.70;;;14.80;98.00;;;;;;20991964;28;20300;-75
2022/09/19 14:11:55;;;;;;;16.33;7.33;;;14.60;98.00;;;;;;20918756;28;20294;-76
2022/09/19 14:21:57;;;;;;;12.37;4.10;;;14.70;98.50;;;;;;20935445;28;20565;-76
2022/09/19 14:32:23;;;;;;;11.10;4.90;;;15.30;98.40;;;;;;20997787;28;20218;-76
2022/09/19 14:42:47;;;;;;;4.97;2.30;;;15.40;98.40;;;;;;20999140;28;20303;-76
2022/09/19 14:53:25;;;;;;;2.27;1.47;;;15.30;97.70;;;;;;20918341;28;20209;-75
2022/09/19 15:03:27;;;;;;;2.50;1.73;;;15.30;97.40;;;;;;20832007;28;20285;-75
2022/09/19 15:13:33;;;;;;;3.27;1.90;;;15.60;96.80;;;;;;20896178;28;20208;-77
2022/09/19 15:23:37;;;;;;;4.27;2.20;;;15.70;96.30;;;;;;20912444;28;20234;-75
2022/09/19 15:33:39;;;;;;;4.87;2.00;;;15.50;95.90;;;;;;20911725;28;20211;-77
2022/09/19 15:43:44;;;;;;;4.87;2.20;;;15.30;96.00;;;;;;20899833;28;20242;-75
2022/09/19 15:53:47;;;;;;;6.83;2.10;;;15.20;96.10;;;;;;20834567;28;20203;-76
2022/09/19 16:03:57;;;;;;;3.87;2.20;;;15.30;96.30;;;;;;20994333;28;20313;-77
2022/09/19 16:14:26;;;;;;;4.83;2.20;;;15.20;96.40;;;;;;20994470;28;20211;-76
2022/09/19 16:24:35;;;;;;;3.30;1.60;;;15.20;94.70;;;;;;20993831;28;20227;-82
2022/09/19 16:34:42;;;;;;;3.40;1.40;;;15.10;93.10;;;;;;20827695;28;20225;-79
2022/09/19 16:44:50;;;;;;;4.77;1.87;;;14.90;91.10;;;;;;20859223;28;20232;-75
2022/09/19 16:54:55;;;;;;;7.47;2.40;;;14.90;91.50;;;;;;20937270;28;20226;-78
2022/09/19 17:05:01;;;;;;;5.80;1.63;;;14.80;91.60;;;;;;21009130;28;20286;-70
2022/09/19 17:15:16;;;;;;;2.70;1.40;;;14.70;92.00;;;;;;21015020;28;20646;-73
2022/09/19 17:25:38;;;;;;;10.50;5.57;;;14.40;91.40;;;;;;21005130;28;20241;-68
2022/09/19 17:35:41;;;;;;;2.13;1.30;;;14.20;91.60;;;;;;21004126;28;20230;-69
2022/09/19 17:45:44;;;;;;;2.43;1.30;;;14.10;91.80;;;;;;20974246;28;20646;-72
2022/09/19 17:55:47;;;;;;;3.60;1.40;;;13.90;91.90;;;;;;20939750;28;20649;-75
2022/09/19 18:05:55;;;;;;;3.33;1.50;;;13.80;92.00;;;;;;20983247;28;20233;-73
2022/09/19 18:15:57;;;;;;;4.23;1.63;;;13.80;92.20;;;;;;20915863;28;20208;-73
2022/09/19 18:26:01;;;;;;;2.23;1.37;;;13.70;92.20;;;;;;20910338;28;20323;-71
2022/09/19 18:36:09;;;;;;;7.33;2.70;;;13.60;91.90;;;;;;20827783;28;20730;-72
2022/09/19 18:46:14;;;;;;;5.97;2.30;;;13.70;92.30;;;;;;20830752;28;20291;-72
2022/09/19 18:56:17;;;;;;;6.10;1.53;;;13.60;92.30;;;;;;20834695;28;20211;-73
2022/09/19 19:06:19;;;;;;;1.80;1.27;;;13.60;92.50;;;;;;20829178;28;20290;-73
2022/09/19 19:16:24;;;;;;;4.43;1.70;;;13.50;92.60;;;;;;20847724;28;20212;-72
2022/09/19 19:26:28;;;;;;;9.07;3.30;;;13.50;92.80;;;;;;20830823;28;20287;-72
2022/09/19 19:36:31;;;;;;;4.27;1.90;;;13.40;93.20;;;;;;20829772;28;20637;-73
2022/09/19 19:46:35;;;;;;;6.87;1.70;;;13.40;93.60;;;;;;20879685;28;20264;-73
2022/09/19 19:56:37;;;;;;;5.47;2.03;;;13.30;94.10;;;;;;20937857;28;20207;-72
2022/09/19 20:06:41;;;;;;;4.03;2.10;;;13.10;94.50;;;;;;20965717;28;20238;-73
2022/09/19 20:16:45;;;;;;;5.83;1.87;;;13.10;95.00;;;;;;20834409;28;20626;-72
2022/09/19 20:26:48;;;;;;;21.57;2.03;;;13.00;95.40;;;;;;20844953;28;20710;-72
2022/09/19 20:36:50;;;;;;;5.00;2.00;;;12.90;95.70;;;;;;20843321;28;20237;-72
2022/09/19 20:46:52;;;;;;;5.30;1.60;;;13.00;95.90;;;;;;20842969;28;20277;-75
2022/09/19 20:56:54;;;;;;;4.77;2.00;;;13.10;95.80;;;;;;20900524;28;20199;-72
2022/09/19 21:06:56;;;;;;;5.00;1.90;;;13.20;95.90;;;;;;21006918;28;20273;-72
2022/09/19 21:16:58;;;;;;;5.33;2.07;;;13.20;95.90;;;;;;21006253;28;20214;-73
2022/09/19 21:26:59;;;;;;;5.93;1.77;;;13.20;95.90;;;;;;21005782;28;20215;-71
2022/09/19 21:37:01;;;;;;;7.03;2.83;;;13.20;95.90;;;;;;21028452;28;20229;-71
2022/09/19 21:47:03;;;;;;;4.13;1.77;;;13.20;96.10;;;;;;21086155;28;20213;-71
2022/09/19 21:57:04;;;;;;;7.53;1.57;;;13.20;96.10;;;;;;21055906;28;20210;-71
2022/09/19 22:07:06;;;;;;;3.50;1.40;;;13.10;95.90;;;;;;20990061;28;20211;-71
2022/09/19 22:17:08;;;;;;;5.00;1.87;;;13.00;95.80;;;;;;20912576;28;20720;-71
2022/09/19 22:27:09;;;;;;;4.47;1.40;;;13.00;95.50;;;;;;20996295;28;20547;-74
2022/09/19 22:37:11;;;;;;;9.23;1.77;;;13.00;95.40;;;;;;20998583;28;20682;-71
2022/09/19 22:47:12;;;;;;;3.80;1.63;;;13.00;95.40;;;;;;20998694;28;20629;-72
2022/09/19 22:57:14;;;;;;;4.30;1.63;;;12.90;95.40;;;;;;20998085;28;20203;-71
2022/09/19 23:07:16;;;;;;;8.13;2.00;;;12.90;95.50;;;;;;20997190;28;20213;-72
2022/09/19 23:17:17;;;;;;;5.27;1.70;;;13.00;95.50;;;;;;20996683;28;20218;-71
2022/09/19 23:27:19;;;;;;;6.83;2.23;;;13.00;95.30;;;;;;20996440;28;20697;-72
2022/09/19 23:37:21;;;;;;;3.33;1.87;;;13.00;95.30;;;;;;20995175;28;20702;-71
2022/09/19 23:47:22;;;;;;;3.73;1.97;;;13.00;95.40;;;;;;20994865;28;20574;-71
2022/09/19 23:57:24;;;;;;;5.97;1.83;;;12.90;95.50;;;;;;20995006;28;20597;-71
